Cape Henlopen — WYR8756 — position and weather

sailwx.info

Track history (hours):
 
Tides and Currents Weather Stations Pressure Air Temp Water Temp Dewpoint Dewpoint Depression Visibility Wind Speed Wind Dir Waves Ship Positions

Cape Henlopen

Owner: DELAWARE RIVER & BAY AUTHORITY, CAPE MAY, NJ. More information available from US FCC via Universal Licensing System and Coast Guard Vessel Documentation Center.

Last reported at 2017-Dec-16 10:38 UTC. Time now 2017-Dec-16 12:42 UTC.
Position N 38°58' W 074°58'.

; draft 3 m.

Type: Passenger vessel. MMSI: 366914180.

Date/timePositionNaut miles runAvg speedWind from/ knotsBaromVisibWave heightAir tempDewpointWater temp
2017-Dec-16 10:38N 38°58' W 074°58'0 0.0
2017-Dec-16 09:16N 38°58' W 074°58'0 0.0
2017-Dec-16 05:55N 38°58' W 074°58'0 0.0
2017-Dec-16 05:30N 38°58' W 074°58'0 0.0
2017-Dec-15 18:28N 38°58' W 074°58'0 0.0
2017-Dec-14 13:13N 38°58' W 074°58'0 0.0
2017-Dec-14 12:49N 38°58' W 074°58'0 0.0
2017-Dec-14 12:13N 38°58' W 074°58'0 0.0
2017-Dec-14 11:16N 38°58' W 074°58'0 0.0
2017-Dec-14 10:55N 38°58' W 074°58'0 0.0
2017-Dec-14 10:28N 38°58' W 074°58'0 0.0
2017-Dec-14 09:22N 38°58' W 074°58'  
2017-Dec-11 15:04N 38°58' W 074°58'0 6.2
2017-Dec-11 15:00N 38°58' W 074°58'611.7
2017-Dec-11 14:30N 38°54' W 075°03'612.0
2017-Dec-11 14:00N 38°48' W 075°07'1 3.0
2017-Dec-11 13:30N 38°47' W 075°07'13 9.9
2017-Dec-11 12:12N 38°58' W 074°58'1 0.1
2017-Dec-11 02:07N 38°58' W 074°58'1 6.7
2017-Dec-11 02:00N 38°58' W 074°59'611.7
2017-Dec-11 01:30N 38°53' W 075°03'612.0
2017-Dec-11 01:00N 38°48' W 075°07'12 1.9
2017-Dec-10 18:28N 38°58' W 074°58'0 0.0
2017-Dec-10 15:03N 38°58' W 074°58'0 5.6
2017-Dec-10 15:00N 38°58' W 074°58'1112.0
2017-Dec-10 14:05N 38°49' W 075°06'112.0
2017-Dec-10 13:58N 38°48' W 075°07'1 2.5
2017-Dec-10 13:30N 38°47' W 075°07'11 9.7
2017-Dec-10 12:20N 38°57' W 074°60'2 0.2
2017-Dec-10 02:05N 38°58' W 074°58'1 8.1
2017-Dec-10 01:59N 38°58' W 074°59'1 0.3
2017-Dec-09 22:34N 38°58' W 074°58'13 7.8
2017-Dec-09 20:51N 38°47' W 075°07'13 5.7
2017-Dec-09 18:31N 38°58' W 074°58'0 6.2
2017-Dec-09 18:30N 38°58' W 074°58'0 0.0
2017-Dec-08 22:37N 38°58' W 074°58'2 9.1
2017-Dec-08 22:25N 38°57' W 074°60'1 0.3
2017-Dec-08 18:27N 38°58' W 074°58'1 0.2
2017-Dec-08 15:21N 38°58' W 074°58'1 3.6
2017-Dec-08 14:57N 38°57' W 074°59'1 0.1
2017-Dec-08 03:04N 38°58' W 074°58'0 0.0
2017-Dec-08 02:01N 38°58' W 074°58'0 3.0
2017-Dec-08 02:01N 38°58' W 074°58'612.0
2017-Dec-08 01:30N 38°54' W 075°03'6 0.3
2017-Dec-07 01:59N 38°58' W 074°58'611.9
2017-Dec-07 01:30N 38°54' W 075°03'  
Track history (hours):
 
Tides and Currents Weather Stations Pressure Air Temp Water Temp Dewpoint Dewpoint Depression Visibility Wind Speed Wind Dir Waves Ship Positions

Cape Henlopen

Owner: DELAWARE RIVER & BAY AUTHORITY, CAPE MAY, NJ. More information available from US FCC via Universal Licensing System and Coast Guard Vessel Documentation Center.

Last reported at 2017-Dec-16 10:38 UTC. Time now 2017-Dec-16 12:42 UTC.
Position N 38°58' W 074°58'.

; draft 3 m.

Type: Passenger vessel. MMSI: 366914180.

Date/timePositionNaut miles runAvg speedWind from/ knotsBaromVisibWave heightAir tempDewpointWater temp
2017-Dec-16 10:38N 38°58' W 074°58'0 0.0
2017-Dec-16 09:16N 38°58' W 074°58'0 0.0
2017-Dec-16 05:55N 38°58' W 074°58'0 0.0
2017-Dec-16 05:30N 38°58' W 074°58'0 0.0
2017-Dec-15 18:28N 38°58' W 074°58'0 0.0
2017-Dec-14 13:13N 38°58' W 074°58'0 0.0
2017-Dec-14 12:49N 38°58' W 074°58'0 0.0
2017-Dec-14 12:13N 38°58' W 074°58'0 0.0
2017-Dec-14 11:16N 38°58' W 074°58'0 0.0
2017-Dec-14 10:55N 38°58' W 074°58'0 0.0
2017-Dec-14 10:28N 38°58' W 074°58'0 0.0
2017-Dec-14 09:22N 38°58' W 074°58'  
2017-Dec-11 15:04N 38°58' W 074°58'0 6.2
2017-Dec-11 15:00N 38°58' W 074°58'611.7
2017-Dec-11 14:30N 38°54' W 075°03'612.0
2017-Dec-11 14:00N 38°48' W 075°07'1 3.0
2017-Dec-11 13:30N 38°47' W 075°07'13 9.9
2017-Dec-11 12:12N 38°58' W 074°58'1 0.1
2017-Dec-11 02:07N 38°58' W 074°58'1 6.7
2017-Dec-11 02:00N 38°58' W 074°59'611.7
2017-Dec-11 01:30N 38°53' W 075°03'612.0
2017-Dec-11 01:00N 38°48' W 075°07'12 1.9
2017-Dec-10 18:28N 38°58' W 074°58'0 0.0
2017-Dec-10 15:03N 38°58' W 074°58'0 5.6
2017-Dec-10 15:00N 38°58' W 074°58'1112.0
2017-Dec-10 14:05N 38°49' W 075°06'112.0
2017-Dec-10 13:58N 38°48' W 075°07'1 2.5
2017-Dec-10 13:30N 38°47' W 075°07'11 9.7
2017-Dec-10 12:20N 38°57' W 074°60'2 0.2
2017-Dec-10 02:05N 38°58' W 074°58'1 8.1
2017-Dec-10 01:59N 38°58' W 074°59'1 0.3
2017-Dec-09 22:34N 38°58' W 074°58'13 7.8
2017-Dec-09 20:51N 38°47' W 075°07'13 5.7
2017-Dec-09 18:31N 38°58' W 074°58'0 6.2
2017-Dec-09 18:30N 38°58' W 074°58'0 0.0
2017-Dec-08 22:37N 38°58' W 074°58'2 9.1
2017-Dec-08 22:25N 38°57' W 074°60'1 0.3
2017-Dec-08 18:27N 38°58' W 074°58'1 0.2
2017-Dec-08 15:21N 38°58' W 074°58'1 3.6
2017-Dec-08 14:57N 38°57' W 074°59'1 0.1
2017-Dec-08 03:04N 38°58' W 074°58'0 0.0
2017-Dec-08 02:01N 38°58' W 074°58'0 3.0
2017-Dec-08 02:01N 38°58' W 074°58'612.0
2017-Dec-08 01:30N 38°54' W 075°03'6 0.3
2017-Dec-07 01:59N 38°58' W 074°58'611.9
2017-Dec-07 01:30N 38°54' W 075°03'  

Dump ship's entire track history